メインページ
METAR-TAF:

METAR-TAF

空港 :

Cold Lake, アルバータ州, カナダ

緯度: 54-25N, 経度: 110-17W, 海抜: 541m

現時点の気象観測

当レポートは33分前の09:00(UTC)に作成
北/北東の風 8kt
気温 -3°C
湿度 80%
気圧 1018 hPa
視程: 24.1km
高度1500ftの千切れ雲あり
高度7000ftの曇り

METAR: CYOD 140900Z 02008KT 15SM BKN015 OVC070 M03/M06 A3005 RMK SC6AC2 SLP207

時間: 02:33 (09:33 UTC)

予報

当レポートは4時間3分前の05:30(UTC)に作成
予報は14日の 06時(UTC)から 15日の 06時(UTC)まで有効
変向風 3kt
視程: 10km
高度1200ftの雲は散在している
高度5000ftの曇り
14日の 06時(UTC)から 14日の 10時(UTC)まで一時的に
視程: 8.0km
高度900ftの雲は散在している
高度1200ftの千切れ雲あり
小雪, 靄
14日の 1000時(UTC)から
北/北西の風 5kt
視程: 10km
高度1200ftの雲は散在している
高度2500ftの千切れ雲あり
14日の 10時(UTC)から 14日の 17時(UTC)まで一時的に
高度1200ftの千切れ雲あり
高度2500ftの曇り
14日の 1700時(UTC)から
の風 5kt
視程: 10km
高度2500ftの雲は散在している
14日の 17時(UTC)から 14日の 23時(UTC)まで一時的に
高度2500ftの千切れ雲あり
14日の 20時(UTC)から 14日の 22時(UTC)まで徐々に
の風 8kt
14日の 2300時(UTC)から
東/南東の風 10kt
視程: 10km
高度2000ftの千切れ雲あり
確率 30%
14日の 23時(UTC)から 15日の 06時(UTC)まで
視程: 6.4km
(弱い) 着氷性, 霧雨, 靄

TAF: CYOD 140530Z 1406/1506 VRB03KT P6SM SCT012 OVC050 TEMPO 1406/1410 5SM -SN BR SCT009 BKN012 FM141000 34005KT P6SM SCT012 BKN025 TEMPO 1410/1417 BKN012 OVC025 FM141700 01005KT P6SM SCT025 TEMPO 1417/1423 BKN025 BECMG 1420/1422 10008KT FM142300 11010KT P6SM BKN020 PROB30 1423/1506 4SM -FZDZ BR RMK NXT FCST BY 141200Z

4,000以上の空港の気象観測と天気予報(METAR報とTAF報)

利用可能な観測所は地図上に黄色い丸と赤い丸で示す。

丸の上にカーソルを重ねると観測所名を参照できる。

次にクリックすると気象観測と天気予報を参照できる。

マップの切り替え:黒色「×」印の緑ボタンをクリックして拡大、「-」印の緑ボタンをクリックして縮小、緑色の三角印をクリックして隣りの地図に切り替え


METAR-TAF: